Time;durP1;ratioP1;P1;durP2;ratioP2;P2;SDS_P1;SDS_P2;PMS_P1;PMS_P2;Temp;Humidity;BMP_temperature;BMP_pressure;BME280_temperature;BME280_humidity;BME280_pressure;Samples;Min_cycle;Max_cycle;Signal;HPM_P1;HPM_P2
2023/07/09 00:01:18;;;;;;;10.10;4.22;;;;;;;-144.47;38.83;52514.50;5028670;28;20045;-70
2023/07/09 00:03:54;;;;;;;9.45;4.40;;;;;;;-144.47;39.03;52516.47;5031270;28;20026;-70
2023/07/09 00:06:19;;;;;;;10.52;5.13;;;;;;;-144.47;39.19;52502.56;5031191;28;20501;-72
2023/07/09 00:08:47;;;;;;;12.30;4.50;;;;;;;-144.47;39.01;52528.41;5031188;28;20022;-69
2023/07/09 00:11:13;;;;;;;9.52;4.65;;;;;;;-144.47;39.05;52510.53;5031728;28;20028;-69
2023/07/09 00:13:38;;;;;;;9.20;4.13;;;;;;;-144.47;38.97;52508.53;5029340;28;20147;-70
2023/07/09 00:16:19;;;;;;;17.67;5.18;;;;;;;-144.47;39.33;52528.41;5031803;28;20029;-69
2023/07/09 00:18:44;;;;;;;9.55;4.28;;;;;;;-144.47;39.24;52512.50;5032082;28;20017;-70
2023/07/09 00:21:10;;;;;;;11.50;4.90;;;;;;;-144.47;39.27;52498.59;5029870;28;20025;-70
2023/07/09 00:23:38;;;;;;;9.48;4.10;;;;;;;-144.47;39.52;52514.50;5019215;28;20625;-71
2023/07/09 00:26:09;;;;;;;11.52;4.53;;;;;;;-144.47;39.47;52498.59;5031005;28;20120;-68
2023/07/09 00:28:35;;;;;;;13.63;4.22;;;;;;;-144.47;39.41;52514.50;5030638;28;20036;-68
2023/07/09 00:31:00;;;;;;;11.85;4.82;;;;;;;-144.47;39.63;52524.41;5031523;28;20025;-69
2023/07/09 00:33:31;;;;;;;9.07;4.80;;;;;;;-144.47;39.44;52502.56;5031169;28;20070;-70
2023/07/09 00:35:57;;;;;;;13.70;4.60;;;;;;;-144.47;39.53;52516.47;5031030;28;20630;-68
2023/07/09 00:38:25;;;;;;;11.00;4.57;;;;;;;-144.47;39.55;52538.31;5044214;22;20041;-69
2023/07/09 00:41:04;;;;;;;14.13;4.65;;;;;;;-144.47;39.79;52510.53;5019447;28;20037;-66
2023/07/09 00:43:34;;;;;;;12.00;4.57;;;;;;;-144.47;39.88;52516.47;5015883;28;20418;-74
2023/07/09 00:46:18;;;;;;;9.50;4.53;;;;;;;-144.47;40.20;52522.44;5048212;28;20097;-71
2023/07/09 00:48:48;;;;;;;11.57;4.97;;;;;;;-144.47;40.37;52526.41;5038940;28;20534;-69
2023/07/09 00:51:16;;;;;;;10.02;5.13;;;;;;;-144.47;40.47;52502.56;5009505;28;20560;-70
2023/07/09 00:53:45;;;;;;;15.20;5.20;;;;;;;-144.47;40.62;52498.59;5023614;28;20104;-71
2023/07/09 00:56:14;;;;;;;12.65;4.93;;;;;;;-144.47;40.92;52506.53;5019144;28;20030;-70
2023/07/09 00:58:42;;;;;;;11.38;4.47;;;;;;;-144.47;41.28;52526.41;5026650;28;20071;-69
2023/07/09 01:01:17;;;;;;;9.93;4.22;;;;;;;-144.47;41.32;52528.41;5019712;28;20018;-69
2023/07/09 01:03:47;;;;;;;9.13;4.80;;;;;;;-144.47;41.67;52526.41;5018237;28;20117;-72
2023/07/09 01:06:15;;;;;;;11.55;4.78;;;;;;;-144.47;41.68;52510.53;5009719;28;20168;-68
2023/07/09 01:08:41;;;;;;;12.98;5.03;;;;;;;-144.47;41.77;52512.50;5013142;28;20024;-69
2023/07/09 01:11:21;;;;;;;10.65;5.25;;;;;;;-144.47;42.04;52558.19;5009537;28;20038;-72
2023/07/09 01:13:54;;;;;;;8.73;4.00;;;;;;;-144.47;42.02;52506.53;5008155;28;20026;-72
2023/07/09 01:16:23;;;;;;;15.98;5.63;;;;;;;-144.47;42.00;52508.53;5009080;28;20025;-70
2023/07/09 01:18:49;;;;;;;7.57;4.35;;;;;;;-144.47;41.96;52506.53;5009882;28;20041;-71
2023/07/09 01:21:17;;;;;;;12.50;4.82;;;;;;;-144.47;42.19;52528.41;5008628;28;20026;-71
2023/07/09 01:23:47;;;;;;;10.40;4.50;;;;;;;-144.47;42.18;52506.53;5008388;28;20160;-69
2023/07/09 01:26:19;;;;;;;10.90;4.50;;;;;;;-144.47;42.28;52498.59;5009129;28;20132;-73
2023/07/09 01:28:45;;;;;;;7.38;4.38;;;;;;;-144.47;42.54;52510.53;5008585;28;20040;-69
2023/07/09 01:31:14;;;;;;;12.65;4.22;;;;;;;-144.47;42.72;52520.44;5022622;28;20022;-72
2023/07/09 01:33:41;;;;;;;9.40;4.53;;;;;;;-144.47;42.72;52526.41;5018453;28;20041;-69
2023/07/09 01:36:08;;;;;;;13.05;5.25;;;;;;;-144.47;43.02;52478.75;4993982;28;20101;-70
2023/07/09 01:38:34;;;;;;;11.10;3.97;;;;;;;-144.47;43.10;52514.50;5008936;28;20037;-73
2023/07/09 01:41:00;;;;;;;12.35;4.45;;;;;;;-144.47;43.24;52504.56;4995625;28;20023;-72
2023/07/09 01:43:26;;;;;;;8.73;4.40;;;;;;;-144.47;43.45;52514.50;5000841;28;20037;-70
2023/07/09 01:45:52;;;;;;;13.55;4.43;;;;;;;-144.47;43.52;52486.69;5019887;28;20025;-72
2023/07/09 01:48:20;;;;;;;11.27;4.32;;;;;;;-144.47;43.77;52496.63;5019665;28;20021;-68
2023/07/09 01:50:49;;;;;;;11.00;4.13;;;;;;;-144.47;43.72;52486.69;5025185;28;20022;-67
2023/07/09 01:53:16;;;;;;;10.27;4.50;;;;;;;-144.47;44.07;52490.66;5009925;28;20586;-69
2023/07/09 01:55:42;;;;;;;7.75;3.85;;;;;;;-144.47;44.25;52518.47;5026836;28;20106;-70
2023/07/09 01:58:08;;;;;;;9.57;4.32;;;;;;;-144.47;44.04;52500.59;5017374;28;20499;-70
2023/07/09 02:00:37;;;;;;;11.02;4.38;;;;;;;-144.47;44.33;52508.53;5009225;28;20038;-71
2023/07/09 02:03:04;;;;;;;9.30;4.65;;;;;;;-144.47;44.44;52510.53;5008440;28;20022;-71
2023/07/09 02:05:33;;;;;;;10.38;4.38;;;;;;;-144.47;44.54;52498.59;5023608;28;20288;-70
2023/07/09 02:07:59;;;;;;;10.98;4.80;;;;;;;-144.47;44.78;52502.56;5020508;28;20091;-72
2023/07/09 02:10:25;;;;;;;8.57;4.38;;;;;;;-144.47;45.05;52506.53;5010996;28;20473;-72
2023/07/09 02:12:51;;;;;;;9.57;4.03;;;;;;;-144.47;45.69;52504.56;5019962;28;20053;-73
2023/07/09 02:15:17;;;;;;;10.07;4.30;;;;;;;-144.47;45.58;52506.53;5009393;28;20022;-66
2023/07/09 02:17:45;;;;;;;13.88;4.80;;;;;;;-144.47;45.80;52494.63;4985554;28;20264;-70
2023/07/09 02:20:11;;;;;;;;;;;;;;;-144.47;46.10;52512.50;5011833;28;20037;-69
2023/07/09 02:22:38;;;;;;;10.70;4.60;;;;;;;-144.47;46.33;52524.41;5009495;28;19937;-67
2023/07/09 02:25:05;;;;;;;10.10;4.32;;;;;;;-144.47;46.55;52516.47;5007325;28;20068;-70
2023/07/09 02:27:31;;;;;;;9.95;4.28;;;;;;;-144.47;46.88;52506.53;5002343;28;20059;-69
2023/07/09 02:29:56;;;;;;;9.75;4.50;;;;;;;-144.47;47.02;52504.56;5009309;28;20057;-69
2023/07/09 02:32:25;;;;;;;10.55;4.93;;;;;;;-144.47;47.39;52480.72;5020429;28;20021;-72
2023/07/09 02:34:52;;;;;;;8.88;4.05;;;;;;;-144.47;47.51;52518.47;5026773;28;20098;-70
2023/07/09 02:37:21;;;;;;;9.00;4.88;;;;;;;-144.47;47.70;52484.69;5024875;28;20129;-69
2023/07/09 02:39:47;;;;;;;9.30;4.72;;;;;;;-144.47;48.29;52498.59;5018384;28;20034;-70
2023/07/09 02:42:15;;;;;;;10.32;4.50;;;;;;;-144.47;48.75;52496.63;4988383;28;20029;-71
2023/07/09 02:44:41;;;;;;;16.27;5.80;;;;;;;-144.47;49.14;52494.63;5012660;28;20498;-71
2023/07/09 02:47:08;;;;;;;12.82;4.97;;;;;;;-144.47;49.46;52512.50;5013926;28;20030;-70
2023/07/09 02:49:33;;;;;;;9.85;4.15;;;;;;;-144.47;49.52;52490.66;5008805;28;20109;-73
2023/07/09 02:51:59;;;;;;;11.35;5.05;;;;;;;-144.47;49.80;52494.63;5007158;28;20100;-71
2023/07/09 02:54:25;;;;;;;10.57;5.07;;;;;;;-144.47;49.89;52490.66;5007526;28;20018;-71
2023/07/09 02:56:50;;;;;;;10.68;4.75;;;;;;;-144.47;49.85;52496.63;5008197;28;20446;-71
2023/07/09 02:59:15;;;;;;;10.88;5.05;;;;;;;-144.47;50.19;52488.69;5027403;28;20100;-70
2023/07/09 03:01:44;;;;;;;8.65;4.88;;;;;;;-144.47;50.22;52508.53;5027779;28;20025;-72
2023/07/09 03:04:10;;;;;;;10.48;4.93;;;;;;;-144.47;50.58;52486.69;5008935;28;20309;-70
2023/07/09 03:06:36;;;;;;;8.15;4.70;;;;;;;-144.47;50.40;52480.72;5013736;28;20013;-71
2023/07/09 03:09:04;;;;;;;12.38;5.78;;;;;;;-144.47;50.30;52502.56;5028303;28;20025;-72
2023/07/09 03:11:31;;;;;;;9.18;4.65;;;;;;;-144.47;50.83;52486.69;5015923;28;20079;-69
2023/07/09 03:13:58;;;;;;;17.90;6.13;;;;;;;-144.47;51.10;52484.69;5007761;28;20089;-72
2023/07/09 03:16:23;;;;;;;9.90;4.50;;;;;;;-144.47;52.05;52502.56;5021235;28;20083;-72
2023/07/09 03:18:49;;;;;;;9.50;4.72;;;;;;;-144.47;52.74;52484.69;4998540;28;20017;-70
2023/07/09 03:21:14;;;;;;;8.18;4.68;;;;;;;-144.47;53.10;52496.63;5012785;28;20372;-71
2023/07/09 03:23:41;;;;;;;7.88;4.72;;;;;;;-144.47;53.51;52516.47;5014873;28;20096;-70
2023/07/09 03:26:06;;;;;;;11.45;4.95;;;;;;;-144.47;53.83;52508.53;5013643;28;20025;-70
2023/07/09 03:28:31;;;;;;;10.57;4.78;;;;;;;-144.47;53.87;52518.47;5014407;28;20395;-67
2023/07/09 03:31:00;;;;;;;14.85;5.32;;;;;;;-144.47;54.24;52522.44;5014156;28;20530;-71
2023/07/09 03:33:25;;;;;;;;;;;;;;;-144.47;53.96;52478.75;5009764;28;20099;-71
2023/07/09 03:35:51;;;;;;;9.13;4.75;;;;;;;-144.47;54.51;52498.59;5012921;28;20367;-70
2023/07/09 03:38:17;;;;;;;10.60;4.35;;;;;;;-144.47;54.58;52466.81;5027726;28;20037;-71
2023/07/09 03:40:43;;;;;;;8.52;4.20;;;;;;;-144.47;54.38;52472.78;4971401;28;20087;-73
2023/07/09 03:43:11;;;;;;;10.90;4.93;;;;;;;-144.47;54.45;52486.69;4998621;28;20017;-69
2023/07/09 03:45:38;;;;;;;11.90;4.63;;;;;;;-144.47;54.50;52504.56;5009580;28;20022;-70
2023/07/09 03:48:05;;;;;;;9.45;4.78;;;;;;;-144.47;54.38;52498.59;5004608;28;20018;-69
2023/07/09 03:50:31;;;;;;;9.70;4.53;;;;;;;-144.47;54.46;52504.56;5026213;28;20025;-71
2023/07/09 03:52:56;;;;;;;10.43;4.65;;;;;;;-144.47;54.44;52482.72;5004104;28;20021;-67
2023/07/09 03:55:22;;;;;;;13.43;5.05;;;;;;;-144.47;54.70;52498.59;5010367;28;20042;-71
2023/07/09 03:57:47;;;;;;;11.07;5.30;;;;;;;-144.47;54.65;52488.69;5019644;28;20036;-71
2023/07/09 04:00:14;;;;;;;12.23;4.88;;;;;;;-144.47;54.18;52506.53;5017487;28;20108;-70
2023/07/09 04:02:40;;;;;;;9.50;5.30;;;;;;;-144.47;53.87;52498.59;5031405;28;20025;-68
2023/07/09 04:05:09;;;;;;;10.45;4.40;;;;;;;-144.47;53.98;52476.75;5027344;28;20516;-71
2023/07/09 04:07:35;;;;;;;9.18;4.65;;;;;;;-144.47;53.97;52508.53;5020109;28;20029;-71
2023/07/09 04:10:00;;;;;;;12.52;5.03;;;;;;;-144.47;54.12;52500.59;5029666;28;20406;-72
2023/07/09 04:12:26;;;;;;;9.07;4.47;;;;;;;-144.47;54.17;52494.63;4976080;28;20503;-74
2023/07/09 04:14:51;;;;;;;8.38;4.57;;;;;;;-144.47;54.10;52524.41;5011152;28;20168;-69
2023/07/09 04:17:17;;;;;;;8.82;5.00;;;;;;;-144.47;54.18;52508.53;5031137;28;20026;-70
2023/07/09 04:19:42;;;;;;;9.23;4.80;;;;;;;-144.47;54.16;52506.53;5017438;28;20415;-68
2023/07/09 04:22:10;;;;;;;10.32;5.15;;;;;;;-144.47;54.25;52508.53;5029809;28;20021;-69
2023/07/09 04:24:36;;;;;;;;;;;;;;;-144.47;54.21;52510.53;5027952;28;20053;-70
2023/07/09 04:27:02;;;;;;;8.48;4.45;;;;;;;-144.47;54.31;52530.38;5018717;28;19959;-67
2023/07/09 04:29:29;;;;;;;11.27;5.00;;;;;;;-144.47;54.56;52512.50;5014549;28;20026;-70
2023/07/09 04:31:54;;;;;;;10.70;4.90;;;;;;;-144.47;54.16;52498.59;5001763;28;20027;-71
2023/07/09 04:34:20;;;;;;;12.05;4.80;;;;;;;-144.47;53.96;52518.47;5016640;28;20022;-70
2023/07/09 04:36:45;;;;;;;12.02;4.50;;;;;;;-144.47;53.86;52480.72;5029153;28;20017;-69
2023/07/09 04:39:10;;;;;;;17.40;5.03;;;;;;;-144.47;53.62;52518.47;5013805;28;20523;-71
2023/07/09 04:41:36;;;;;;;13.23;4.50;;;;;;;-144.47;53.33;52516.47;5000356;28;20388;-71
2023/07/09 04:44:01;;;;;;;8.27;4.40;;;;;;;-144.47;53.20;52522.44;5015603;28;20026;-67
2023/07/09 04:46:26;;;;;;;10.35;4.75;;;;;;;-144.47;52.85;52518.47;5029971;28;20025;-69
2023/07/09 04:48:52;;;;;;;9.98;4.18;;;;;;;-144.47;52.84;52496.63;5029398;28;20100;-72
2023/07/09 04:51:17;;;;;;;7.47;3.53;;;;;;;-144.47;52.57;52538.31;5029205;28;20287;-67
2023/07/09 04:53:43;;;;;;;14.00;4.72;;;;;;;-144.47;52.39;52512.50;5027127;28;20025;-70
2023/07/09 04:56:09;;;;;;;10.80;5.15;;;;;;;-144.47;52.00;52544.28;5018601;28;20015;-69
2023/07/09 04:58:35;;;;;;;11.57;5.32;;;;;;;-144.47;51.70;52486.69;5027560;28;20416;-68
2023/07/09 05:01:00;;;;;;;11.85;5.90;;;;;;;-144.47;51.76;52502.56;4991518;28;20041;-69
2023/07/09 05:03:26;;;;;;;8.40;4.93;;;;;;;-144.47;51.78;52486.69;5024855;28;20614;-70
2023/07/09 05:05:52;;;;;;;10.07;4.97;;;;;;;-144.47;51.82;52510.53;5020575;28;20023;-70
2023/07/09 05:08:17;;;;;;;12.43;5.57;;;;;;;-144.47;51.90;52512.50;5009859;28;20025;-67
2023/07/09 05:10:49;;;;;;;11.85;4.97;;;;;;;-144.47;52.15;52538.31;4990497;28;20022;-71
2023/07/09 05:13:16;;;;;;;18.92;5.30;;;;;;;-144.47;52.35;52502.56;5018216;28;20123;-72
2023/07/09 05:15:46;;;;;;;11.20;4.97;;;;;;;-144.47;52.34;52530.38;5012374;28;20098;-69
2023/07/09 05:18:14;;;;;;;9.15;5.30;;;;;;;-144.47;52.42;52506.53;5029580;28;20478;-67
2023/07/09 05:20:40;;;;;;;12.02;5.70;;;;;;;-144.47;52.62;52510.53;5018761;28;20049;-71
2023/07/09 05:23:09;;;;;;;12.43;5.30;;;;;;;-144.47;52.56;52480.72;5022603;28;20048;-71
2023/07/09 05:25:34;;;;;;;16.08;5.53;;;;;;;-144.47;52.80;52502.56;5018777;28;20134;-69
2023/07/09 05:28:00;;;;;;;10.15;4.90;;;;;;;-144.47;52.79;52502.56;5012591;28;20113;-70
2023/07/09 05:30:26;;;;;;;9.27;4.68;;;;;;;-144.47;52.93;52542.28;5009166;28;20029;-70
2023/07/09 05:32:53;;;;;;;8.15;4.70;;;;;;;-144.47;53.21;52504.56;5002244;28;20117;-68
2023/07/09 05:35:19;;;;;;;13.57;5.88;;;;;;;-144.47;53.47;52528.41;4999762;28;20029;-71
2023/07/09 05:37:44;;;;;;;8.85;4.45;;;;;;;-144.47;53.66;52534.34;5004127;28;20432;-71
2023/07/09 05:40:10;;;;;;;9.73;5.47;;;;;;;-144.47;53.70;52512.50;5001694;28;20080;-68
2023/07/09 05:42:35;;;;;;;9.00;4.80;;;;;;;-144.47;53.25;52504.56;4999364;28;20092;-69
2023/07/09 05:45:00;;;;;;;10.32;5.20;;;;;;;-144.47;53.24;52528.41;5005587;28;20068;-70
2023/07/09 05:47:26;;;;;;;13.43;5.28;;;;;;;-144.47;53.33;52506.53;5024977;28;20025;-69
2023/07/09 05:49:52;;;;;;;8.38;4.68;;;;;;;-144.47;53.14;52514.50;5010670;28;20085;-69
2023/07/09 05:52:19;;;;;;;10.25;4.30;;;;;;;-144.47;52.92;52528.41;4994710;28;20033;-71
2023/07/09 05:54:45;;;;;;;9.30;4.95;;;;;;;-144.47;52.59;52518.47;5009064;28;20052;-74
2023/07/09 05:57:10;;;;;;;12.45;5.40;;;;;;;-144.47;52.05;52510.53;5003419;28;20189;-69
2023/07/09 05:59:36;;;;;;;9.32;4.95;;;;;;;-144.47;51.95;52514.50;5008139;28;20026;-69
2023/07/09 06:02:02;;;;;;;10.80;5.50;;;;;;;-144.47;51.94;52508.53;5020136;28;20030;-70
2023/07/09 06:04:28;;;;;;;11.60;5.00;;;;;;;-144.47;51.85;52522.44;5010117;28;20112;-70
2023/07/09 06:06:53;;;;;;;10.10;5.07;;;;;;;-144.47;51.51;52490.66;5011467;28;20440;-75
2023/07/09 06:09:19;;;;;;;11.98;4.88;;;;;;;-144.47;51.32;52522.44;4982393;28;20033;-68
2023/07/09 06:11:44;;;;;;;10.90;4.57;;;;;;;-144.47;51.16;52518.47;4999494;28;20060;-69
2023/07/09 06:14:10;;;;;;;9.75;5.28;;;;;;;-144.47;51.21;52534.34;4998428;28;20018;-70
2023/07/09 06:16:37;;;;;;;14.23;5.15;;;;;;;-144.47;50.95;52512.50;5003803;28;20013;-67
2023/07/09 06:19:02;;;;;;;12.18;5.22;;;;;;;-144.47;50.76;52534.34;5000960;28;20080;-69
2023/07/09 06:21:28;;;;;;;9.25;4.78;;;;;;;-144.47;50.09;52526.41;5001471;28;20018;-68
2023/07/09 06:23:53;;;;;;;12.95;4.95;;;;;;;-144.47;49.85;52522.44;5010002;28;20105;-72
2023/07/09 06:26:19;;;;;;;12.85;5.00;;;;;;;-144.47;49.67;52530.38;5024708;28;20120;-67
2023/07/09 06:28:45;;;;;;;16.70;5.18;;;;;;;-144.47;49.34;52542.28;5016593;28;20108;-71
2023/07/09 06:31:10;;;;;;;11.93;5.38;;;;;;;-144.47;49.30;52530.38;5007665;28;20022;-69
2023/07/09 06:33:35;;;;;;;10.65;4.93;;;;;;;-144.47;49.50;52518.47;4989890;28;20061;-72
2023/07/09 06:36:01;;;;;;;11.90;5.40;;;;;;;-144.47;48.95;52514.50;5020824;28;20112;-68
2023/07/09 06:38:28;;;;;;;22.02;5.00;;;;;;;-144.47;48.35;52526.41;5009297;28;20066;-70
2023/07/09 06:40:54;;;;;;;10.38;4.45;;;;;;;-144.47;47.87;52570.09;4987701;28;20042;-69
2023/07/09 06:43:20;;;;;;;13.27;5.28;;;;;;;-144.47;47.37;52562.16;5001873;28;20382;-68
2023/07/09 06:45:55;;;;;;;6.70;3.90;;;;;;;-144.47;46.82;52522.44;5013504;28;20032;-70
2023/07/09 06:48:21;;;;;;;9.07;4.60;;;;;;;-144.47;46.77;52534.34;5018572;28;20022;-68
2023/07/09 06:50:47;;;;;;;11.02;5.15;;;;;;;-144.47;46.33;52556.19;5012012;28;20033;-71
2023/07/09 06:53:12;;;;;;;8.13;4.18;;;;;;;-144.47;46.28;52544.28;5015571;28;20104;-71
2023/07/09 06:55:38;;;;;;;8.43;4.72;;;;;;;-144.47;46.39;52526.41;5007220;28;20022;-72
2023/07/09 06:58:03;;;;;;;12.57;5.20;;;;;;;-144.47;45.48;52578.03;5018326;28;20028;-70
2023/07/09 07:00:29;;;;;;;8.23;4.70;;;;;;;-144.47;45.25;52576.06;5021972;28;20649;-67
2023/07/09 07:02:54;;;;;;;14.82;4.00;;;;;;;-144.47;44.19;52542.28;5013088;28;20474;-72
2023/07/09 07:05:19;;;;;;;12.85;5.50;;;;;;;-144.47;43.34;52546.25;5019240;28;20344;-67
2023/07/09 07:07:44;;;;;;;7.90;4.72;;;;;;;-144.47;43.68;52536.34;5002594;28;20371;-71
2023/07/09 07:10:10;;;;;;;7.97;4.30;;;;;;;-144.47;42.15;52584.00;5006660;28;20135;-72
2023/07/09 07:12:44;;;;;;;8.10;4.57;;;;;;;-144.47;43.12;52560.16;4980657;28;20021;-71
2023/07/09 07:15:11;;;;;;;9.18;4.82;;;;;;;-144.47;42.69;52548.25;4992485;28;20502;-67
2023/07/09 07:17:37;;;;;;;12.48;4.85;;;;;;;-144.47;42.42;52574.06;5002284;28;20034;-70
2023/07/09 07:20:02;;;;;;;11.65;4.50;;;;;;;-144.47;42.35;52578.03;4999136;28;20052;-68
2023/07/09 07:22:28;;;;;;;8.88;5.15;;;;;;;-144.47;42.37;52580.03;5006579;28;20431;-71
2023/07/09 07:24:53;;;;;;;8.52;4.72;;;;;;;-144.47;42.40;52556.19;4978156;28;20045;-68
2023/07/09 07:27:19;;;;;;;7.20;4.40;;;;;;;-144.47;42.07;52576.06;4980980;28;20027;-66
2023/07/09 07:29:45;;;;;;;8.40;4.35;;;;;;;-144.47;42.14;52576.06;5006589;28;20034;-70
2023/07/09 07:32:11;;;;;;;10.40;4.55;;;;;;;-144.47;41.86;52566.13;4981405;28;20022;-68
2023/07/09 07:34:36;;;;;;;8.73;4.53;;;;;;;-144.47;41.54;52560.16;5001010;28;20018;-71
2023/07/09 07:37:01;;;;;;;9.77;5.13;;;;;;;-144.47;41.50;52580.03;5013341;28;20013;-68
2023/07/09 07:39:27;;;;;;;8.35;4.35;;;;;;;-144.47;41.23;52603.84;4994922;28;20089;-68
2023/07/09 07:41:52;;;;;;;11.35;4.53;;;;;;;-144.47;40.22;52560.16;5001334;28;20026;-70
2023/07/09 07:44:18;;;;;;;12.38;5.15;;;;;;;-144.47;40.36;52554.22;5004272;28;20025;-71
2023/07/09 07:46:43;;;;;;;9.07;4.38;;;;;;;-144.47;39.64;52574.06;4988676;28;20064;-71
2023/07/09 07:49:09;;;;;;;9.40;4.18;;;;;;;-144.47;38.89;52570.09;5010461;28;20025;-70
2023/07/09 07:51:34;;;;;;;6.97;4.13;;;;;;;-144.47;38.89;52593.94;4997461;28;20106;-73
2023/07/09 07:53:59;;;;;;;9.02;5.07;;;;;;;-144.47;39.20;52584.00;5009093;28;20014;-68
2023/07/09 07:56:25;;;;;;;8.43;4.60;;;;;;;-144.47;39.04;52599.88;5002453;28;20069;-69
2023/07/09 07:58:51;;;;;;;11.60;4.82;;;;;;;-144.47;38.67;52597.91;5010985;28;20052;-71
2023/07/09 08:01:16;;;;;;;16.27;4.25;;;;;;;-144.47;38.69;52591.94;4988754;28;20352;-72
2023/07/09 08:03:42;;;;;;;9.77;4.35;;;;;;;-144.47;38.34;52617.75;4983302;28;20404;-68
2023/07/09 08:06:07;;;;;;;6.47;4.00;;;;;;;-144.47;38.42;52623.72;5001267;28;20026;-70
2023/07/09 08:08:32;;;;;;;8.38;4.28;;;;;;;-144.47;38.64;52611.81;5004502;28;20024;-71
2023/07/09 08:11:04;;;;;;;8.27;4.68;;;;;;;-144.47;38.44;52629.69;5017995;28;20021;-70
2023/07/09 08:13:32;;;;;;;13.20;5.10;;;;;;;-144.47;38.44;52625.72;5019891;28;20028;-69
2023/07/09 08:15:58;;;;;;;10.90;4.85;;;;;;;-144.47;38.12;52605.84;5002132;28;20029;-69
2023/07/09 08:18:23;;;;;;;14.40;4.75;;;;;;;-144.47;38.32;52635.63;5007506;28;20029;-70
2023/07/09 08:20:48;;;;;;;11.48;4.45;;;;;;;-144.47;38.17;52635.63;4987578;28;20578;-69
2023/07/09 08:23:14;;;;;;;13.02;4.45;;;;;;;-144.47;37.84;52641.59;5007534;28;20129;-70
2023/07/09 08:25:40;;;;;;;10.75;5.03;;;;;;;-144.47;37.13;52639.59;5011275;28;20028;-70
2023/07/09 08:28:05;;;;;;;11.32;4.30;;;;;;;-144.47;36.76;52637.63;5005327;28;20022;-70
2023/07/09 08:30:30;;;;;;;13.73;4.15;;;;;;;-144.47;36.47;52649.53;5009647;28;20029;-69
2023/07/09 08:32:57;;;;;;;9.52;4.13;;;;;;;-144.47;36.53;52649.53;4991741;28;20017;-70
2023/07/09 08:35:23;;;;;;;8.45;4.53;;;;;;;-144.47;36.68;52657.47;5018360;28;20052;-68
2023/07/09 08:37:48;;;;;;;6.47;4.38;;;;;;;-144.47;35.69;52669.41;5009809;28;20571;-70
2023/07/09 08:40:16;;;;;;;8.45;4.43;;;;;;;-144.47;35.57;52667.41;5005687;28;20030;-68
2023/07/09 08:42:46;;;;;;;7.57;3.92;;;;;;;-144.47;35.51;52655.50;5004053;28;20038;-68
2023/07/09 08:45:36;;;;;;;12.57;4.25;;;;;;;-144.47;35.70;52653.50;5016176;28;20068;-67
2023/07/09 08:48:05;;;;;;;8.27;4.32;;;;;;;-144.47;34.85;52665.44;5011907;28;20463;-71
2023/07/09 08:50:46;;;;;;;9.25;3.80;;;;;;;-144.47;34.74;52655.50;4993942;28;20112;-71
2023/07/09 08:53:31;;;;;;;7.22;3.70;;;;;;;-144.47;34.42;52689.25;5011097;28;20447;-70
2023/07/09 08:55:58;;;;;;;6.80;3.75;;;;;;;-144.47;34.49;52669.41;5008603;28;20101;-68
2023/07/09 08:58:27;;;;;;;8.13;4.18;;;;;;;-144.47;34.53;52693.22;5004779;28;20102;-71
2023/07/09 09:00:57;;;;;;;8.73;3.97;;;;;;;-144.47;34.04;52723.03;4997373;28;20160;-71
2023/07/09 09:03:43;;;;;;;6.25;3.67;;;;;;;-144.47;33.63;52673.38;4998507;28;20165;-71
2023/07/09 09:06:15;;;;;;;6.53;4.05;;;;;;;-144.47;33.05;52687.28;4996155;28;20046;-68
2023/07/09 09:08:43;;;;;;;6.70;3.70;;;;;;;-144.47;32.70;52687.28;4993991;28;20629;-71
2023/07/09 09:11:23;;;;;;;9.60;4.47;;;;;;;-144.47;32.26;52697.19;4996747;28;20026;-70
2023/07/09 09:13:53;;;;;;;9.60;3.67;;;;;;;-144.47;31.59;52713.09;5002941;28;20026;-71
2023/07/09 09:16:27;;;;;;;9.52;4.25;;;;;;;-144.47;31.27;52701.19;4982528;28;20042;-70
2023/07/09 09:18:57;;;;;;;5.72;3.63;;;;;;;-144.47;30.99;52715.06;5000815;28;20033;-70
2023/07/09 09:21:29;;;;;;;8.27;3.50;;;;;;;-144.47;30.43;52705.16;5005881;28;20463;-71
2023/07/09 09:23:59;;;;;;;8.25;3.47;;;;;;;-144.47;30.17;52721.03;5002796;28;20494;-71
2023/07/09 09:26:30;;;;;;;7.03;3.80;;;;;;;-144.47;30.61;52730.97;4999899;28;20034;-69
2023/07/09 09:28:56;;;;;;;11.80;3.85;;;;;;;-144.47;30.79;52740.91;5002982;28;20033;-71
2023/07/09 09:31:26;;;;;;;8.25;4.03;;;;;;;-144.47;30.51;52717.06;5003532;28;20034;-70
2023/07/09 09:33:52;;;;;;;13.63;4.80;;;;;;;-144.47;30.44;52740.91;5001847;28;20100;-71
2023/07/09 09:36:20;;;;;;;13.05;4.28;;;;;;;-144.47;30.04;52742.88;4998149;28;20487;-71
2023/07/09 09:38:46;;;;;;;10.07;4.10;;;;;;;-144.47;29.58;52705.16;5009721;28;20033;-70
2023/07/09 09:41:14;;;;;;;10.52;4.10;;;;;;;-144.47;29.53;52738.91;4999074;28;20551;-69
2023/07/09 09:43:42;;;;;;;13.25;3.72;;;;;;;-144.47;29.31;52776.66;5001044;28;20109;-69
2023/07/09 09:46:08;;;;;;;7.47;3.47;;;;;;;-144.47;29.20;52742.88;5000796;28;20084;-73
2023/07/09 09:48:34;;;;;;;9.25;3.97;;;;;;;-144.47;29.47;52744.88;5006023;28;20026;-71
2023/07/09 09:51:04;;;;;;;7.18;3.88;;;;;;;-144.47;29.70;52782.59;5002647;28;20041;-69
2023/07/09 09:53:36;;;;;;;9.35;3.92;;;;;;;-144.47;29.49;52760.75;4978911;28;20455;-70
2023/07/09 09:56:06;;;;;;;10.23;3.67;;;;;;;-144.47;29.15;52764.72;5029200;28;20037;-69
2023/07/09 09:58:31;;;;;;;7.47;3.65;;;;;;;-144.47;29.00;52754.81;5019592;28;20136;-70
2023/07/09 10:01:00;;;;;;;8.70;4.03;;;;;;;-144.47;28.81;52768.69;5008517;28;20100;-71
2023/07/09 10:03:36;;;;;;;8.82;4.13;;;;;;;-144.47;28.70;52772.69;5007932;28;20139;-72
2023/07/09 10:06:32;;;;;;;11.32;3.72;;;;;;;-144.47;28.55;52798.50;5007891;28;20033;-72
2023/07/09 10:09:11;;;;;;;8.82;3.40;;;;;;;-144.47;28.25;52780.63;5003067;28;20070;-71
2023/07/09 10:11:49;;;;;;;7.50;3.28;;;;;;;-144.47;28.09;52782.59;5022273;28;20037;-72
2023/07/09 10:14:34;;;;;;;6.60;3.83;;;;;;;-144.47;28.09;52772.69;5006134;28;20094;-70
2023/07/09 10:17:15;;;;;;;7.78;4.00;;;;;;;-144.47;28.12;52776.66;5006956;28;20433;-70
2023/07/09 10:19:52;;;;;;;6.97;3.65;;;;;;;-144.47;28.07;52796.50;4996856;28;20017;-69
2023/07/09 10:22:42;;;;;;;11.88;4.18;;;;;;;-144.47;27.73;52788.56;4990002;28;20178;-71
2023/07/09 10:25:23;;;;;;;5.95;3.35;;;;;;;-144.47;26.98;52816.38;4989741;28;20041;-72
2023/07/09 10:28:38;;;;;;;6.65;3.55;;;;;;;-144.47;26.60;52804.44;4994634;28;20492;-72
2023/07/09 10:31:19;;;;;;;8.68;3.75;;;;;;;-144.47;26.93;52794.53;4958844;28;20054;-72
2023/07/09 10:34:16;;;;;;;6.85;3.65;;;;;;;-144.47;26.83;52822.31;4991895;28;20026;-69
2023/07/09 10:37:08;;;;;;;7.78;4.00;;;;;;;-144.47;26.80;52822.31;4987405;28;20038;-71
2023/07/09 10:39:56;;;;;;;6.78;3.75;;;;;;;-144.47;26.88;52820.34;4992362;28;20119;-70
2023/07/09 10:42:37;;;;;;;8.25;3.78;;;;;;;-144.47;26.82;52814.38;4992488;28;20065;-72
2023/07/09 10:45:11;;;;;;;9.07;3.85;;;;;;;-144.47;27.11;52832.25;4987728;28;20062;-69
2023/07/09 10:47:43;;;;;;;7.60;3.80;;;;;;;-144.47;26.83;52848.16;4991955;28;20593;-68
2023/07/09 10:50:31;;;;;;;9.50;3.88;;;;;;;-144.47;26.61;52828.28;4989876;28;20176;-72
2023/07/09 10:53:04;;;;;;;8.32;4.25;;;;;;;-144.47;26.58;52836.22;4995976;28;20207;-70
2023/07/09 10:55:49;;;;;;;9.55;3.97;;;;;;;-144.47;26.39;52877.94;4985821;28;20030;-70
2023/07/09 10:58:55;;;;;;;8.90;3.88;;;;;;;-144.47;26.19;52834.25;4990323;28;20088;-71
2023/07/09 11:01:30;;;;;;;9.52;3.47;;;;;;;-144.47;26.54;52871.97;4950629;28;20387;-70
2023/07/09 11:04:01;;;;;;;9.38;3.60;;;;;;;-144.47;26.24;52883.91;4990655;28;20113;-71
2023/07/09 11:06:32;;;;;;;7.50;3.63;;;;;;;-144.47;25.84;52858.06;4988672;28;20322;-71
2023/07/09 11:09:00;;;;;;;9.27;4.13;;;;;;;-144.47;25.87;52877.94;4991760;28;20085;-70
2023/07/09 11:11:42;;;;;;;13.60;4.10;;;;;;;-144.47;26.17;52877.94;4996042;28;20026;-72
2023/07/09 11:14:40;;;;;;;13.05;3.90;;;;;;;-144.47;25.74;52875.94;4992781;28;20030;-70
2023/07/09 11:17:19;;;;;;;9.43;3.92;;;;;;;-144.47;25.67;52895.81;4990452;28;20538;-71
2023/07/09 11:19:47;;;;;;;7.43;3.65;;;;;;;-144.47;25.39;52907.72;4992764;28;20037;-70
2023/07/09 11:22:21;;;;;;;10.30;3.95;;;;;;;-144.47;25.51;52897.81;4988446;28;20042;-70